Time,TemperatureF,DewpointF,PressureIn,WindDirection,WindDirectionDegrees,WindSpeedMPH,WindSpeedGustMPH,Humidity,HourlyPrecipIn,Conditions,Clouds,dailyrainin,SoftwareType,DateUTC
2013-01-20 00:04:00,38.0,36.9,29.55,North,0,0.0,-999.0,96,0.01,,,-99.99,,2013-01-20 09:04:00,
2013-01-20 00:09:00,38.2,37.2,29.55,North,0,0.0,-999.0,96,0.01,,,-99.99,,2013-01-20 09:09:00,
2013-01-20 00:14:00,38.1,37.0,29.55,North,0,0.0,-999.0,95,0.01,,,-99.99,,2013-01-20 09:14:00,
2013-01-20 00:19:00,37.8,36.8,29.55,North,0,0.0,-999.0,95,0.01,,,-99.99,,2013-01-20 09:19:00,
2013-01-20 00:24:00,37.9,36.8,29.55,North,0,0.0,-999.0,95,0.01,,,-99.99,,2013-01-20 09:24:00,
2013-01-20 00:29:00,37.7,36.6,29.55,North,0,0.0,-999.0,95,0.01,,,-99.99,,2013-01-20 09:29:00,
2013-01-20 00:34:00,37.7,36.5,29.55,North,0,0.0,-999.0,95,0.01,,,-99.99,,2013-01-20 09:34:00,
2013-01-20 00:39:00,37.7,36.5,29.55,North,0,0.0,-999.0,95,0.01,,,-99.99,,2013-01-20 09:39:00,
2013-01-20 00:44:00,37.7,36.5,29.55,North,0,0.0,-999.0,95,0.01,,,-99.99,,2013-01-20 09:44:00,
2013-01-20 00:49:00,37.7,36.6,29.55,North,0,0.0,-999.0,95,0.01,,,-99.99,,2013-01-20 09:49:00,
2013-01-20 00:54:00,37.7,36.5,29.55,North,0,0.0,-999.0,95,0.02,,,-99.99,,2013-01-20 09:54:00,
2013-01-20 00:59:00,37.5,36.3,29.57,North,0,0.0,-999.0,95,0.00,,,-99.99,,2013-01-20 09:59:00,
2013-01-20 01:04:00,37.6,36.4,29.57,North,0,0.0,-999.0,95,0.00,,,-99.99,,2013-01-20 10:04:00,
2013-01-20 01:09:00,37.7,36.4,29.57,North,0,0.0,-999.0,95,0.00,,,-99.99,,2013-01-20 10:09:00,
2013-01-20 01:14:00,37.8,36.5,29.57,North,0,0.0,-999.0,95,0.00,,,-99.99,,2013-01-20 10:14:00,
2013-01-20 01:19:00,37.9,36.6,29.57,North,0,0.0,-999.0,94,0.00,,,-99.99,,2013-01-20 10:19:00,
2013-01-20 01:24:00,38.1,36.8,29.57,North,0,0.0,-999.0,94,0.00,,,-99.99,,2013-01-20 10:24:00,
2013-01-20 01:29:00,37.8,36.3,29.57,North,0,0.0,-999.0,94,0.00,,,-99.99,,2013-01-20 10:29:00,
2013-01-20 01:34:00,38.1,36.7,29.57,North,0,0.0,-999.0,94,0.00,,,-99.99,,2013-01-20 10:34:00,
2013-01-20 01:39:00,38.1,36.7,29.57,North,0,0.0,-999.0,94,0.00,,,-99.99,,2013-01-20 10:39:00,
2013-01-20 01:44:00,38.3,36.9,29.57,North,0,0.0,-999.0,94,0.00,,,-99.99,,2013-01-20 10:44:00,
2013-01-20 01:49:00,38.2,36.8,29.57,North,0,0.0,-999.0,94,0.01,,,-99.99,,2013-01-20 10:49:00,
2013-01-20 01:54:00,38.0,36.5,29.57,North,0,0.0,-999.0,94,0.01,,,-99.99,,2013-01-20 10:54:00,
2013-01-20 01:59:00,37.9,36.5,29.58,North,0,0.0,-999.0,94,0.00,,,-99.99,,2013-01-20 10:59:00,
2013-01-20 02:04:00,38.0,36.6,29.58,North,0,0.0,-999.0,94,0.00,,,-99.99,,2013-01-20 11:04:00,
2013-01-20 02:09:00,37.9,36.4,29.58,North,0,0.0,-999.0,94,0.00,,,-99.99,,2013-01-20 11:09:00,
2013-01-20 02:14:00,37.7,36.2,29.58,North,0,0.0,-999.0,94,0.00,,,-99.99,,2013-01-20 11:14:00,
2013-01-20 02:19:00,37.6,36.0,29.58,North,0,0.0,-999.0,94,0.00,,,-99.99,,2013-01-20 11:19:00,
2013-01-20 02:24:00,37.2,35.7,29.58,North,0,0.0,-999.0,94,0.00,,,-99.99,,2013-01-20 11:24:00,
2013-01-20 02:29:00,37.2,35.7,29.58,North,0,0.0,-999.0,94,0.00,,,-99.99,,2013-01-20 11:29:00,
2013-01-20 02:34:00,37.2,35.8,29.58,North,0,0.0,-999.0,94,0.00,,,-99.99,,2013-01-20 11:34:00,
2013-01-20 02:39:00,37.1,35.7,29.58,North,0,0.0,-999.0,94,0.00,,,-99.99,,2013-01-20 11:39:00,
2013-01-20 02:44:00,37.1,35.7,29.58,North,0,0.0,-999.0,94,0.00,,,-99.99,,2013-01-20 11:44:00,
2013-01-20 02:49:00,36.9,35.5,29.58,North,0,0.0,-999.0,94,0.00,,,-99.99,,2013-01-20 11:49:00,
2013-01-20 02:54:00,37.0,35.8,29.58,North,0,0.0,-999.0,95,0.00,,,-99.99,,2013-01-20 11:54:00,
2013-01-20 02:59:00,37.4,36.2,29.60,North,0,0.0,-999.0,95,0.00,,,-99.99,,2013-01-20 11:59:00,
2013-01-20 03:04:00,37.4,36.1,29.60,North,0,0.0,-999.0,95,0.00,,,-99.99,,2013-01-20 12:04:00,
2013-01-20 03:09:00,37.3,36.0,29.60,North,0,0.0,-999.0,95,0.00,,,-99.99,,2013-01-20 12:09:00,
2013-01-20 03:14:00,37.3,36.0,29.60,North,0,0.0,-999.0,94,0.00,,,-99.99,,2013-01-20 12:14:00,
2013-01-20 03:19:00,37.3,36.2,29.60,North,0,0.0,-999.0,95,0.00,,,-99.99,,2013-01-20 12:19:00,
2013-01-20 03:24:00,37.3,36.0,29.60,North,0,0.0,-999.0,94,0.00,,,-99.99,,2013-01-20 12:24:00,
2013-01-20 03:29:00,36.9,35.6,29.60,North,0,0.0,-999.0,94,0.00,,,-99.99,,2013-01-20 12:29:00,
2013-01-20 03:34:00,36.9,35.7,29.60,North,0,0.0,-999.0,95,0.00,,,-99.99,,2013-01-20 12:34:00,
2013-01-20 03:39:00,36.9,35.6,29.60,North,0,0.0,-999.0,95,0.00,,,-99.99,,2013-01-20 12:39:00,
2013-01-20 03:44:00,36.9,35.7,29.60,North,0,0.0,-999.0,95,0.00,,,-99.99,,2013-01-20 12:44:00,
2013-01-20 03:49:00,37.1,35.9,29.60,North,0,0.0,-999.0,95,0.00,,,-99.99,,2013-01-20 12:49:00,
2013-01-20 03:54:00,37.1,36.0,29.60,North,0,0.0,-999.0,95,0.00,,,-99.99,,2013-01-20 12:54:00,
2013-01-20 03:59:00,37.3,36.2,29.61,North,0,0.0,-999.0,95,0.00,,,-99.99,,2013-01-20 12:59:00,
2013-01-20 04:04:00,37.1,36.0,29.61,North,0,0.0,-999.0,95,0.00,,,-99.99,,2013-01-20 13:04:00,
2013-01-20 04:09:00,37.0,35.9,29.61,North,0,0.0,-999.0,95,0.00,,,-99.99,,2013-01-20 13:09:00,
2013-01-20 04:14:00,37.1,36.0,29.61,North,0,0.0,-999.0,95,0.00,,,-99.99,,2013-01-20 13:14:00,
2013-01-20 04:19:00,37.2,36.1,29.61,North,0,0.0,-999.0,95,0.01,,,-99.99,,2013-01-20 13:19:00,
2013-01-20 04:24:00,37.1,36.0,29.61,North,0,0.0,-999.0,95,0.01,,,-99.99,,2013-01-20 13:24:00,
2013-01-20 04:29:00,36.9,35.8,29.61,North,0,0.0,-999.0,95,0.01,,,-99.99,,2013-01-20 13:29:00,
2013-01-20 04:34:00,36.7,35.5,29.61,North,0,0.0,-999.0,95,0.01,,,-99.99,,2013-01-20 13:34:00,
2013-01-20 04:39:00,36.7,35.5,29.61,North,0,0.0,-999.0,95,0.01,,,-99.99,,2013-01-20 13:39:00,
2013-01-20 04:44:00,36.5,35.5,29.61,North,0,0.0,-999.0,95,0.01,,,-99.99,,2013-01-20 13:44:00,
2013-01-20 04:49:00,36.9,35.8,29.61,North,0,0.0,-999.0,96,0.01,,,-99.99,,2013-01-20 13:49:00,
2013-01-20 04:54:00,37.0,35.9,29.61,North,0,0.0,-999.0,95,0.01,,,-99.99,,2013-01-20 13:54:00,
2013-01-20 04:59:00,36.7,35.6,29.62,North,0,0.0,-999.0,95,0.00,,,-99.99,,2013-01-20 13:59:00,
2013-01-20 05:04:00,36.5,35.4,29.62,North,0,0.0,-999.0,95,0.00,,,-99.99,,2013-01-20 14:04:00,
2013-01-20 05:09:00,36.2,35.1,29.62,North,0,0.0,-999.0,95,0.00,,,-99.99,,2013-01-20 14:09:00,
2013-01-20 05:14:00,36.4,35.3,29.62,North,0,0.0,-999.0,95,0.00,,,-99.99,,2013-01-20 14:14:00,
2013-01-20 05:19:00,36.2,35.2,29.62,North,0,0.0,-999.0,96,0.00,,,-99.99,,2013-01-20 14:19:00,
2013-01-20 05:24:00,36.4,35.3,29.62,North,0,0.0,-999.0,95,0.00,,,-99.99,,2013-01-20 14:24:00,
2013-01-20 05:29:00,36.5,35.5,29.62,North,0,0.0,-999.0,95,0.00,,,-99.99,,2013-01-20 14:29:00,
2013-01-20 05:34:00,36.8,35.8,29.62,North,0,0.0,-999.0,96,0.00,,,-99.99,,2013-01-20 14:34:00,
2013-01-20 05:39:00,36.6,35.6,29.62,North,0,0.0,-999.0,96,0.00,,,-99.99,,2013-01-20 14:39:00,
2013-01-20 05:44:00,36.7,35.6,29.62,North,0,0.0,-999.0,95,0.00,,,-99.99,,2013-01-20 14:44:00,
2013-01-20 05:49:00,36.4,35.2,29.62,North,0,0.0,-999.0,95,0.00,,,-99.99,,2013-01-20 14:49:00,
2013-01-20 05:54:00,36.2,35.1,29.62,North,0,0.0,-999.0,95,0.00,,,-99.99,,2013-01-20 14:54:00,
2013-01-20 05:59:00,36.0,35.0,29.63,North,0,0.0,-999.0,95,0.00,,,-99.99,,2013-01-20 14:59:00,
2013-01-20 06:04:00,35.9,34.9,29.63,North,0,0.0,-999.0,95,0.00,,,-99.99,,2013-01-20 15:04:00,
2013-01-20 06:09:00,36.0,35.0,29.63,North,0,0.0,-999.0,96,0.00,,,-99.99,,2013-01-20 15:09:00,
2013-01-20 06:14:00,35.9,34.9,29.63,North,0,0.0,-999.0,96,0.00,,,-99.99,,2013-01-20 15:14:00,
2013-01-20 06:19:00,36.0,35.1,29.63,North,0,0.0,-999.0,96,0.00,,,-99.99,,2013-01-20 15:19:00,
2013-01-20 06:24:00,36.0,35.0,29.63,North,0,0.0,-999.0,96,0.00,,,-99.99,,2013-01-20 15:24:00,
2013-01-20 06:29:00,35.7,34.8,29.63,North,0,0.0,-999.0,96,0.00,,,-99.99,,2013-01-20 15:29:00,
2013-01-20 06:34:00,35.7,34.8,29.63,North,0,0.0,-999.0,96,0.00,,,-99.99,,2013-01-20 15:34:00,
2013-01-20 06:39:00,35.7,34.7,29.63,North,0,0.0,-999.0,96,0.00,,,-99.99,,2013-01-20 15:39:00,
2013-01-20 06:44:00,35.6,34.6,29.63,North,0,0.0,-999.0,96,0.00,,,-99.99,,2013-01-20 15:44:00,
2013-01-20 06:49:00,35.4,34.5,29.63,North,0,0.0,-999.0,96,0.00,,,-99.99,,2013-01-20 15:49:00,
2013-01-20 06:54:00,35.3,34.4,29.63,North,0,0.0,-999.0,96,0.00,,,-99.99,,2013-01-20 15:54:00,
2013-01-20 06:59:00,35.3,34.4,29.64,North,0,0.0,-999.0,96,0.00,,,-99.99,,2013-01-20 15:59:00,
2013-01-20 07:04:00,35.2,34.4,29.64,North,0,0.0,-999.0,96,0.00,,,-99.99,,2013-01-20 16:04:00,
2013-01-20 07:09:00,35.2,34.4,29.64,North,0,0.0,-999.0,96,0.00,,,-99.99,,2013-01-20 16:09:00,
2013-01-20 07:14:00,35.2,34.3,29.64,North,0,0.0,-999.0,96,0.00,,,-99.99,,2013-01-20 16:14:00,
2013-01-20 07:19:00,35.3,34.4,29.64,North,0,0.0,-999.0,96,0.00,,,-99.99,,2013-01-20 16:19:00,
2013-01-20 07:24:00,35.3,34.5,29.64,North,0,0.0,-999.0,96,0.00,,,-99.99,,2013-01-20 16:24:00,
2013-01-20 07:29:00,35.3,34.5,29.64,North,0,0.0,-999.0,96,0.00,,,-99.99,,2013-01-20 16:29:00,
2013-01-20 07:34:00,35.2,34.3,29.64,North,0,0.0,-999.0,96,0.00,,,-99.99,,2013-01-20 16:34:00,
2013-01-20 07:39:00,35.2,34.3,29.64,North,0,0.0,-999.0,96,0.00,,,-99.99,,2013-01-20 16:39:00,
2013-01-20 07:44:00,35.3,34.5,29.64,North,0,0.0,-999.0,96,0.00,,,-99.99,,2013-01-20 16:44:00,
2013-01-20 07:49:00,35.0,34.2,29.64,North,0,0.0,-999.0,96,0.00,,,-99.99,,2013-01-20 16:49:00,
2013-01-20 07:54:00,35.3,34.4,29.64,North,0,0.0,-999.0,96,0.01,,,-99.99,,2013-01-20 16:54:00,
2013-01-20 07:59:00,35.1,34.3,29.64,North,0,0.0,-999.0,96,0.00,,,-99.99,,2013-01-20 16:59:00,
2013-01-20 08:04:00,35.4,34.6,29.64,North,0,0.0,-999.0,96,0.00,,,-99.99,,2013-01-20 17:04:00,
2013-01-20 08:09:00,35.6,34.8,29.64,North,0,0.0,-999.0,96,0.00,,,-99.99,,2013-01-20 17:09:00,
2013-01-20 08:14:00,36.0,35.2,29.64,North,0,0.0,-999.0,97,0.00,,,-99.99,,2013-01-20 17:14:00,
2013-01-20 08:19:00,35.6,34.7,29.64,North,0,0.0,-999.0,96,0.00,,,-99.99,,2013-01-20 17:19:00,
2013-01-20 08:24:00,34.9,33.9,29.64,North,0,0.0,-999.0,96,0.00,,,-99.99,,2013-01-20 17:24:00,
2013-01-20 08:29:00,34.9,34.1,29.64,North,0,0.0,-999.0,96,0.00,,,-99.99,,2013-01-20 17:29:00,
2013-01-20 08:34:00,35.3,34.5,29.64,North,0,0.0,-999.0,97,0.00,,,-99.99,,2013-01-20 17:34:00,
2013-01-20 08:39:00,35.0,34.1,29.64,North,0,0.0,-999.0,96,0.00,,,-99.99,,2013-01-20 17:39:00,
2013-01-20 08:44:00,35.0,34.3,29.64,North,0,0.0,-999.0,97,0.00,,,-99.99,,2013-01-20 17:44:00,
2013-01-20 08:49:00,34.8,34.0,29.64,North,0,0.0,-999.0,96,0.00,,,-99.99,,2013-01-20 17:49:00,
2013-01-20 08:54:00,34.8,34.0,29.64,North,0,0.0,-999.0,96,0.00,,,-99.99,,2013-01-20 17:54:00,
2013-01-20 08:59:00,34.7,33.8,29.64,North,0,0.0,-999.0,96,0.00,,,-99.99,,2013-01-20 17:59:00,
2013-01-20 09:04:00,34.5,33.7,29.64,North,0,0.0,-999.0,96,0.00,,,-99.99,,2013-01-20 18:04:00,
2013-01-20 09:09:00,34.2,33.4,29.64,North,0,0.0,-999.0,96,0.00,,,-99.99,,2013-01-20 18:09:00,
2013-01-20 09:14:00,34.0,33.2,29.64,North,0,0.0,-999.0,96,0.00,,,-99.99,,2013-01-20 18:14:00,
2013-01-20 09:19:00,34.3,33.6,29.64,North,0,0.0,-999.0,96,0.00,,,-99.99,,2013-01-20 18:19:00,
2013-01-20 09:24:00,34.0,33.2,29.64,North,0,0.0,-999.0,96,0.00,,,-99.99,,2013-01-20 18:24:00,
2013-01-20 09:29:00,33.9,33.1,29.64,North,0,0.0,-999.0,96,0.00,,,-99.99,,2013-01-20 18:29:00,
2013-01-20 09:34:00,33.5,32.7,29.64,North,0,0.0,-999.0,96,0.00,,,-99.99,,2013-01-20 18:34:00,
2013-01-20 09:39:00,33.2,32.4,29.64,North,0,0.0,-999.0,96,0.00,,,-99.99,,2013-01-20 18:39:00,
2013-01-20 09:44:00,33.7,33.0,29.64,North,0,0.0,-999.0,97,0.00,,,-99.99,,2013-01-20 18:44:00,
2013-01-20 09:49:00,33.8,33.1,29.64,North,0,0.0,-999.0,97,0.00,,,-99.99,,2013-01-20 18:49:00,
2013-01-20 09:54:00,33.4,32.7,29.64,North,0,0.0,-999.0,96,0.00,,,-99.99,,2013-01-20 18:54:00,
2013-01-20 09:59:00,33.5,32.8,29.65,North,0,0.0,-999.0,97,0.00,,,-99.99,,2013-01-20 18:59:00,
2013-01-20 10:04:00,33.5,32.8,29.65,North,0,0.0,-999.0,97,0.00,,,-99.99,,2013-01-20 19:04:00,
2013-01-20 10:09:00,33.6,32.9,29.65,North,0,0.0,-999.0,97,0.00,,,-99.99,,2013-01-20 19:09:00,
2013-01-20 10:15:00,33.7,33.0,29.65,North,0,0.0,-999.0,97,0.00,,,-99.99,,2013-01-20 19:15:00,
2013-01-20 10:20:00,33.5,32.8,29.65,North,0,0.0,-999.0,97,0.00,,,-99.99,,2013-01-20 19:20:00,
2013-01-20 10:25:00,33.4,32.6,29.65,North,0,0.0,-999.0,97,0.00,,,-99.99,,2013-01-20 19:25:00,
2013-01-20 10:30:00,33.5,32.8,29.65,North,0,0.0,-999.0,97,0.00,,,-99.99,,2013-01-20 19:30:00,
2013-01-20 10:35:00,33.7,33.0,29.65,North,0,0.0,-999.0,97,0.00,,,-99.99,,2013-01-20 19:35:00,
2013-01-20 10:40:00,34.1,33.4,29.65,North,0,0.0,-999.0,97,0.00,,,-99.99,,2013-01-20 19:40:00,
2013-01-20 10:45:00,34.2,33.5,29.65,North,0,0.0,-999.0,97,0.00,,,-99.99,,2013-01-20 19:45:00,
2013-01-20 10:50:00,34.5,33.8,29.65,North,0,0.0,-999.0,97,0.00,,,-99.99,,2013-01-20 19:50:00,
2013-01-20 10:55:00,35.0,34.3,29.65,North,0,0.0,-999.0,97,0.00,,,-99.99,,2013-01-20 19:55:00,
2013-01-20 11:00:00,35.0,34.3,29.66,North,0,0.0,-999.0,97,0.00,,,-99.99,,2013-01-20 20:00:00,
2013-01-20 11:05:00,35.3,34.6,29.66,North,0,0.0,-999.0,97,0.00,,,-99.99,,2013-01-20 20:05:00,
2013-01-20 11:10:00,35.0,34.2,29.66,North,0,0.0,-999.0,96,0.00,,,-99.99,,2013-01-20 20:10:00,
2013-01-20 11:15:00,35.0,34.3,29.66,North,0,0.0,-999.0,97,0.00,,,-99.99,,2013-01-20 20:15:00,
2013-01-20 11:20:00,35.2,34.5,29.66,North,0,0.0,-999.0,97,0.00,,,-99.99,,2013-01-20 20:20:00,
2013-01-20 11:25:00,34.9,34.1,29.66,North,0,0.0,-999.0,96,0.00,,,-99.99,,2013-01-20 20:25:00,
2013-01-20 11:30:00,35.0,34.2,29.66,North,0,0.0,-999.0,97,0.00,,,-99.99,,2013-01-20 20:30:00,
2013-01-20 11:35:00,34.9,34.1,29.66,North,0,0.0,-999.0,96,0.00,,,-99.99,,2013-01-20 20:35:00,
2013-01-20 11:40:00,34.8,34.0,29.66,North,0,0.0,-999.0,96,0.01,,,-99.99,,2013-01-20 20:40:00,
2013-01-20 11:45:00,34.8,34.0,29.66,North,0,0.0,-999.0,96,0.01,,,-99.99,,2013-01-20 20:45:00,
2013-01-20 11:50:00,34.6,33.8,29.66,North,0,0.0,-999.0,96,0.01,,,-99.99,,2013-01-20 20:50:00,
2013-01-20 11:55:00,34.5,33.7,29.66,North,0,0.0,-999.0,97,0.01,,,-99.99,,2013-01-20 20:55:00,
2013-01-20 12:00:00,34.8,34.1,29.67,North,0,0.0,-999.0,97,0.00,,,-99.99,,2013-01-20 21:00:00,
2013-01-20 12:05:00,34.8,34.1,29.67,North,0,0.0,-999.0,97,0.00,,,-99.99,,2013-01-20 21:05:00,
2013-01-20 12:11:00,35.3,34.6,29.67,North,0,0.0,-999.0,97,0.00,,,-99.99,,2013-01-20 21:11:00,
2013-01-20 12:17:00,35.6,34.9,29.67,North,0,0.0,-999.0,97,0.00,,,-99.99,,2013-01-20 21:17:00,
2013-01-20 12:23:00,35.9,35.2,29.67,North,0,0.0,-999.0,97,0.00,,,-99.99,,2013-01-20 21:23:00,
2013-01-20 12:28:00,36.0,35.2,29.67,North,0,0.0,-999.0,96,0.00,,,-99.99,,2013-01-20 21:28:00,
2013-01-20 12:33:00,36.2,35.4,29.67,North,0,0.0,-999.0,96,0.00,,,-99.99,,2013-01-20 21:33:00,
2013-01-20 12:38:00,36.1,35.3,29.67,North,0,0.0,-999.0,96,0.00,,,-99.99,,2013-01-20 21:38:00,
2013-01-20 12:43:00,35.9,35.0,29.67,North,0,0.0,-999.0,96,0.00,,,-99.99,,2013-01-20 21:43:00,
2013-01-20 12:49:00,35.8,34.9,29.67,North,0,0.0,-999.0,96,0.00,,,-99.99,,2013-01-20 21:49:00,
2013-01-20 12:54:00,35.8,35.0,29.67,North,0,0.0,-999.0,96,0.00,,,-99.99,,2013-01-20 21:54:00,
2013-01-20 12:59:00,35.9,35.0,29.66,North,0,0.0,-999.0,96,0.00,,,-99.99,,2013-01-20 21:59:00,
2013-01-20 13:04:00,35.8,34.9,29.66,North,0,0.0,-999.0,96,0.00,,,-99.99,,2013-01-20 22:04:00,
2013-01-20 13:09:00,36.0,35.2,29.66,North,0,0.0,-999.0,96,0.00,,,-99.99,,2013-01-20 22:09:00,
2013-01-20 13:14:00,36.2,35.4,29.66,North,0,0.0,-999.0,96,0.00,,,-99.99,,2013-01-20 22:14:00,
2013-01-20 13:19:00,36.7,35.9,29.66,North,0,0.0,-999.0,96,0.00,,,-99.99,,2013-01-20 22:19:00,
2013-01-20 13:24:00,36.6,35.7,29.66,North,0,0.0,-999.0,96,0.00,,,-99.99,,2013-01-20 22:24:00,
2013-01-20 13:29:00,36.5,35.6,29.66,North,0,0.0,-999.0,96,0.00,,,-99.99,,2013-01-20 22:29:00,
2013-01-20 13:34:00,36.4,35.5,29.66,North,0,0.0,-999.0,96,0.00,,,-99.99,,2013-01-20 22:34:00,
2013-01-20 13:39:00,36.5,35.6,29.66,North,0,0.0,-999.0,96,0.00,,,-99.99,,2013-01-20 22:39:00,
2013-01-20 13:44:00,36.7,35.7,29.66,North,0,0.0,-999.0,96,0.00,,,-99.99,,2013-01-20 22:44:00,
2013-01-20 13:49:00,36.5,35.5,29.66,North,0,0.0,-999.0,96,0.00,,,-99.99,,2013-01-20 22:49:00,
2013-01-20 13:54:00,36.3,35.3,29.66,North,0,0.0,-999.0,96,0.00,,,-99.99,,2013-01-20 22:54:00,
2013-01-20 13:59:00,36.5,35.6,29.66,North,0,0.0,-999.0,96,0.00,,,-99.99,,2013-01-20 22:59:00,
2013-01-20 14:04:00,36.5,35.6,29.66,North,0,0.0,-999.0,96,0.00,,,-99.99,,2013-01-20 23:04:00,
2013-01-20 14:09:00,36.7,35.8,29.66,North,0,0.0,-999.0,96,0.00,,,-99.99,,2013-01-20 23:09:00,
2013-01-20 14:14:00,36.5,35.6,29.66,North,0,0.0,-999.0,96,0.00,,,-99.99,,2013-01-20 23:14:00,
2013-01-20 14:20:00,36.2,35.2,29.66,North,0,0.0,-999.0,96,0.00,,,-99.99,,2013-01-20 23:20:00,
2013-01-20 14:25:00,36.3,35.3,29.66,North,0,0.0,-999.0,96,0.00,,,-99.99,,2013-01-20 23:25:00,
2013-01-20 14:30:00,36.5,35.7,29.66,North,0,0.0,-999.0,96,0.00,,,-99.99,,2013-01-20 23:30:00,
2013-01-20 14:35:00,36.5,35.6,29.66,North,0,0.0,-999.0,96,0.00,,,-99.99,,2013-01-20 23:35:00,
2013-01-20 14:40:00,36.5,35.6,29.66,North,0,0.0,-999.0,96,0.00,,,-99.99,,2013-01-20 23:40:00,
2013-01-20 14:45:00,36.5,35.6,29.66,North,0,0.0,-999.0,96,0.00,,,-99.99,,2013-01-20 23:45:00,
2013-01-20 14:50:00,36.3,35.4,29.66,North,0,0.0,-999.0,96,0.00,,,-99.99,,2013-01-20 23:50:00,
2013-01-20 14:55:00,36.7,35.8,29.66,North,0,0.0,-999.0,96,0.00,,,-99.99,,2013-01-20 23:55:00,
2013-01-20 15:00:00,36.8,36.0,29.67,North,0,0.0,-999.0,96,0.00,,,-99.99,,2013-01-21 00:00:00,
2013-01-20 15:05:00,36.9,36.0,29.67,North,0,0.0,-999.0,96,0.00,,,-99.99,,2013-01-21 00:05:00,
2013-01-20 15:10:00,37.0,36.1,29.67,North,0,0.0,-999.0,96,0.00,,,-99.99,,2013-01-21 00:10:00,
2013-01-20 15:15:00,37.0,36.0,29.67,North,0,0.0,-999.0,96,0.00,,,-99.99,,2013-01-21 00:15:00,
2013-01-20 15:20:00,37.1,36.2,29.67,North,0,0.0,-999.0,96,0.00,,,-99.99,,2013-01-21 00:20:00,
2013-01-20 15:25:00,37.0,36.0,29.67,North,0,0.0,-999.0,96,0.00,,,-99.99,,2013-01-21 00:25:00,
2013-01-20 15:30:00,37.0,36.0,29.67,North,0,0.0,-999.0,96,0.00,,,-99.99,,2013-01-21 00:30:00,
2013-01-20 15:36:00,36.8,35.8,29.67,North,0,0.0,-999.0,95,0.00,,,-99.99,,2013-01-21 00:36:00,
2013-01-20 15:41:00,36.5,35.5,29.67,North,0,0.0,-999.0,95,0.00,,,-99.99,,2013-01-21 00:41:00,
2013-01-20 15:47:00,36.4,35.4,29.67,North,0,0.0,-999.0,95,0.00,,,-99.99,,2013-01-21 00:47:00,
2013-01-20 15:52:00,36.0,35.0,29.67,North,0,0.0,-999.0,96,0.00,,,-99.99,,2013-01-21 00:52:00,
2013-01-20 15:57:00,35.9,34.9,29.67,North,0,0.0,-999.0,96,0.00,,,-99.99,,2013-01-21 00:57:00,
2013-01-20 16:02:00,35.8,34.8,29.67,North,0,0.0,-999.0,96,0.00,,,-99.99,,2013-01-21 01:02:00,
2013-01-20 16:08:00,35.5,34.6,29.67,North,0,0.0,-999.0,96,0.01,,,-99.99,,2013-01-21 01:08:00,
2013-01-20 16:13:00,35.6,34.7,29.67,North,0,0.0,-999.0,96,0.01,,,-99.99,,2013-01-21 01:13:00,
2013-01-20 16:18:00,35.6,34.7,29.67,North,0,0.0,-999.0,96,0.01,,,-99.99,,2013-01-21 01:18:00,
2013-01-20 16:23:00,35.4,34.6,29.67,North,0,0.0,-999.0,96,0.01,,,-99.99,,2013-01-21 01:23:00,
2013-01-20 16:28:00,35.8,34.9,29.67,North,0,0.0,-999.0,96,0.01,,,-99.99,,2013-01-21 01:28:00,
2013-01-20 16:33:00,35.6,34.7,29.67,North,0,0.0,-999.0,96,0.01,,,-99.99,,2013-01-21 01:33:00,
2013-01-20 16:38:00,35.8,34.9,29.67,North,0,0.0,-999.0,96,0.01,,,-99.99,,2013-01-21 01:38:00,
2013-01-20 16:43:00,35.7,34.8,29.67,North,0,0.0,-999.0,96,0.01,,,-99.99,,2013-01-21 01:43:00,
2013-01-20 16:49:00,35.6,34.7,29.67,North,0,0.0,-999.0,96,0.01,,,-99.99,,2013-01-21 01:49:00,
2013-01-20 16:54:00,35.7,34.8,29.67,North,0,0.0,-999.0,96,0.01,,,-99.99,,2013-01-21 01:54:00,
2013-01-20 16:59:00,35.7,34.8,29.67,North,0,0.0,-999.0,96,0.00,,,-99.99,,2013-01-21 01:59:00,
2013-01-20 17:04:00,35.6,34.7,29.67,North,0,0.0,-999.0,96,0.00,,,-99.99,,2013-01-21 02:04:00,
2013-01-20 17:09:00,35.6,34.7,29.67,North,0,0.0,-999.0,96,0.00,,,-99.99,,2013-01-21 02:09:00,
2013-01-20 17:14:00,35.7,34.8,29.67,North,0,0.0,-999.0,96,0.00,,,-99.99,,2013-01-21 02:14:00,
2013-01-20 17:19:00,35.4,34.5,29.67,North,0,0.0,-999.0,96,0.00,,,-99.99,,2013-01-21 02:19:00,
2013-01-20 17:24:00,35.3,34.4,29.67,North,0,0.0,-999.0,96,0.00,,,-99.99,,2013-01-21 02:24:00,
2013-01-20 17:29:00,35.2,34.3,29.67,North,0,0.0,-999.0,96,0.00,,,-99.99,,2013-01-21 02:29:00,
2013-01-20 17:34:00,35.1,34.3,29.67,North,0,0.0,-999.0,96,0.00,,,-99.99,,2013-01-21 02:34:00,
2013-01-20 17:39:00,34.9,34.0,29.67,North,0,0.0,-999.0,96,0.00,,,-99.99,,2013-01-21 02:39:00,
2013-01-20 17:44:00,34.7,33.9,29.67,North,0,0.0,-999.0,96,0.00,,,-99.99,,2013-01-21 02:44:00,
2013-01-20 17:49:00,34.7,33.9,29.67,North,0,0.0,-999.0,96,0.00,,,-99.99,,2013-01-21 02:49:00,
2013-01-20 17:54:00,34.7,33.9,29.67,North,0,0.0,-999.0,96,0.00,,,-99.99,,2013-01-21 02:54:00,
2013-01-20 17:59:00,34.5,33.7,29.66,North,0,0.0,-999.0,96,0.00,,,-99.99,,2013-01-21 02:59:00,
2013-01-20 18:04:00,34.3,33.6,29.66,North,0,0.0,-999.0,96,0.00,,,-99.99,,2013-01-21 03:04:00,
2013-01-20 18:09:00,34.3,33.5,29.66,North,0,0.0,-999.0,96,0.00,,,-99.99,,2013-01-21 03:09:00,
2013-01-20 18:14:00,34.3,33.6,29.66,North,0,0.0,-999.0,96,0.00,,,-99.99,,2013-01-21 03:14:00,
2013-01-20 18:19:00,34.3,33.5,29.66,North,0,0.0,-999.0,96,0.00,,,-99.99,,2013-01-21 03:19:00,
2013-01-20 18:24:00,34.3,33.5,29.66,North,0,0.0,-999.0,97,0.00,,,-99.99,,2013-01-21 03:24:00,
2013-01-20 18:29:00,34.1,33.3,29.66,North,0,0.0,-999.0,96,0.00,,,-99.99,,2013-01-21 03:29:00,
2013-01-20 18:34:00,34.1,33.4,29.66,North,0,0.0,-999.0,97,0.00,,,-99.99,,2013-01-21 03:34:00,
2013-01-20 18:39:00,34.2,33.4,29.66,North,0,0.0,-999.0,97,0.00,,,-99.99,,2013-01-21 03:39:00,
2013-01-20 18:44:00,34.0,33.3,29.66,North,0,0.0,-999.0,97,0.00,,,-99.99,,2013-01-21 03:44:00,
2013-01-20 18:49:00,34.2,33.5,29.66,North,0,0.0,-999.0,97,0.00,,,-99.99,,2013-01-21 03:49:00,
2013-01-20 18:55:00,34.0,33.3,29.66,North,0,0.0,-999.0,97,0.00,,,-99.99,,2013-01-21 03:55:00,
2013-01-20 19:00:00,34.2,33.5,29.68,North,0,0.0,-999.0,97,0.00,,,-99.99,,2013-01-21 04:00:00,
2013-01-20 19:05:00,34.3,33.6,29.68,North,0,0.0,-999.0,97,0.00,,,-99.99,,2013-01-21 04:05:00,
2013-01-20 19:10:00,34.3,33.6,29.68,North,0,0.0,-999.0,97,0.00,,,-99.99,,2013-01-21 04:10:00,
2013-01-20 19:15:00,34.3,33.6,29.68,North,0,0.0,-999.0,97,0.00,,,-99.99,,2013-01-21 04:15:00,
2013-01-20 19:20:00,34.4,33.7,29.68,North,0,0.0,-999.0,97,0.00,,,-99.99,,2013-01-21 04:20:00,
2013-01-20 19:25:00,34.5,33.8,29.68,North,0,0.0,-999.0,97,0.00,,,-99.99,,2013-01-21 04:25:00,
2013-01-20 19:31:00,34.5,33.8,29.68,North,0,0.0,-999.0,97,0.00,,,-99.99,,2013-01-21 04:31:00,
2013-01-20 19:37:00,34.6,33.9,29.68,North,0,0.0,-999.0,97,0.00,,,-99.99,,2013-01-21 04:37:00,
2013-01-20 19:42:00,34.5,33.8,29.68,North,0,0.0,-999.0,97,0.00,,,-99.99,,2013-01-21 04:42:00,
2013-01-20 19:47:00,34.5,33.7,29.68,North,0,0.0,-999.0,97,0.00,,,-99.99,,2013-01-21 04:47:00,
2013-01-20 19:53:00,34.5,33.7,29.68,North,0,0.0,-999.0,97,0.00,,,-99.99,,2013-01-21 04:53:00,
2013-01-20 19:58:00,34.7,34.0,29.68,North,0,0.0,-999.0,97,0.00,,,-99.99,,2013-01-21 04:58:00,
2013-01-20 20:01:00,34.6,34.0,29.68,North,0,0.0,-999.0,97,0.00,,,-99.99,,2013-01-21 05:01:00,
2013-01-20 20:03:00,34.7,33.9,29.68,North,0,0.0,-999.0,97,0.00,,,-99.99,,2013-01-21 05:03:00,
2013-01-20 20:04:00,34.6,33.9,29.68,North,0,0.0,-999.0,97,0.00,,,-99.99,,2013-01-21 05:04:00,
2013-01-20 20:09:00,34.6,33.9,29.68,North,0,0.0,-999.0,97,0.00,,,-99.99,,2013-01-21 05:09:00,
2013-01-20 20:14:00,34.7,34.0,29.68,North,0,0.0,-999.0,97,0.00,,,-99.99,,2013-01-21 05:14:00,
2013-01-20 20:19:00,34.7,34.0,29.68,North,0,0.0,-999.0,97,0.00,,,-99.99,,2013-01-21 05:19:00,
2013-01-20 20:24:00,34.7,33.9,29.68,North,0,0.0,-999.0,97,0.00,,,-99.99,,2013-01-21 05:24:00,
2013-01-20 20:29:00,34.7,33.9,29.68,North,0,0.0,-999.0,97,0.00,,,-99.99,,2013-01-21 05:29:00,
2013-01-20 20:34:00,34.7,34.0,29.68,North,0,0.0,-999.0,97,0.00,,,-99.99,,2013-01-21 05:34:00,
2013-01-20 20:39:00,34.6,33.8,29.68,North,0,0.0,-999.0,97,0.00,,,-99.99,,2013-01-21 05:39:00,
2013-01-20 20:44:00,34.7,33.9,29.68,North,0,0.0,-999.0,97,0.00,,,-99.99,,2013-01-21 05:44:00,
2013-01-20 20:49:00,34.5,33.8,29.68,North,0,0.0,-999.0,97,0.00,,,-99.99,,2013-01-21 05:49:00,
2013-01-20 20:54:00,34.7,34.0,29.68,North,0,0.0,-999.0,97,0.00,,,-99.99,,2013-01-21 05:54:00,
2013-01-20 20:59:00,34.5,33.8,29.68,North,0,0.0,-999.0,97,0.00,,,-99.99,,2013-01-21 05:59:00,
2013-01-20 21:04:00,34.6,33.9,29.68,North,0,0.0,-999.0,97,0.00,,,-99.99,,2013-01-21 06:04:00,
2013-01-20 21:09:00,34.7,34.0,29.68,North,0,0.0,-999.0,97,0.00,,,-99.99,,2013-01-21 06:09:00,
2013-01-20 21:14:00,34.9,34.3,29.68,North,0,0.0,-999.0,97,0.00,,,-99.99,,2013-01-21 06:14:00,
2013-01-20 21:20:00,34.8,34.1,29.68,North,0,0.0,-999.0,97,0.00,,,-99.99,,2013-01-21 06:20:00,
2013-01-20 21:25:00,34.7,34.0,29.68,North,0,0.0,-999.0,97,0.00,,,-99.99,,2013-01-21 06:25:00,
2013-01-20 21:30:00,34.9,34.2,29.68,North,0,0.0,-999.0,97,0.00,,,-99.99,,2013-01-21 06:30:00,
2013-01-20 21:35:00,35.0,34.3,29.68,North,0,0.0,-999.0,97,0.00,,,-99.99,,2013-01-21 06:35:00,
2013-01-20 21:40:00,35.0,34.2,29.68,North,0,0.0,-999.0,97,0.00,,,-99.99,,2013-01-21 06:40:00,
2013-01-20 21:45:00,35.1,34.4,29.68,North,0,0.0,-999.0,97,0.00,,,-99.99,,2013-01-21 06:45:00,
2013-01-20 21:50:00,35.1,34.3,29.68,North,0,0.0,-999.0,97,0.00,,,-99.99,,2013-01-21 06:50:00,
2013-01-20 21:55:00,35.1,34.4,29.68,North,0,0.0,-999.0,97,0.00,,,-99.99,,2013-01-21 06:55:00,
2013-01-20 22:00:00,35.2,34.5,29.68,North,0,0.0,-999.0,97,0.00,,,-99.99,,2013-01-21 07:00:00,
2013-01-20 22:05:00,35.1,34.3,29.68,North,0,0.0,-999.0,97,0.00,,,-99.99,,2013-01-21 07:05:00,
2013-01-20 22:10:00,35.2,34.5,29.68,North,0,0.0,-999.0,97,0.00,,,-99.99,,2013-01-21 07:10:00,
2013-01-20 22:15:00,35.0,34.2,29.68,North,0,0.0,-999.0,96,0.00,,,-99.99,,2013-01-21 07:15:00,
2013-01-20 22:20:00,34.8,34.0,29.68,North,0,0.0,-999.0,96,0.00,,,-99.99,,2013-01-21 07:20:00,
2013-01-20 22:25:00,35.0,34.2,29.68,North,0,0.0,-999.0,96,0.00,,,-99.99,,2013-01-21 07:25:00,
2013-01-20 22:30:00,35.1,34.2,29.68,North,0,0.0,-999.0,96,0.00,,,-99.99,,2013-01-21 07:30:00,
2013-01-20 22:35:00,35.2,34.2,29.68,North,0,0.0,-999.0,96,0.00,,,-99.99,,2013-01-21 07:35:00,
2013-01-20 22:40:00,35.1,34.1,29.68,North,0,0.0,-999.0,95,0.00,,,-99.99,,2013-01-21 07:40:00,
2013-01-20 22:45:00,35.3,34.2,29.68,North,0,0.0,-999.0,95,0.00,,,-99.99,,2013-01-21 07:45:00,
2013-01-20 22:50:00,35.3,34.3,29.68,North,0,0.0,-999.0,96,0.00,,,-99.99,,2013-01-21 07:50:00,
2013-01-20 22:55:00,35.4,34.5,29.68,North,0,0.0,-999.0,96,0.00,,,-99.99,,2013-01-21 07:55:00,
2013-01-20 23:00:00,35.6,34.6,29.67,North,0,0.0,-999.0,96,0.00,,,-99.99,,2013-01-21 08:00:00,
2013-01-20 23:05:00,35.8,34.8,29.67,North,0,0.0,-999.0,95,0.00,,,-99.99,,2013-01-21 08:05:00,
2013-01-20 23:10:00,35.5,34.4,29.67,North,0,0.0,-999.0,95,0.00,,,-99.99,,2013-01-21 08:10:00,
2013-01-20 23:15:00,35.4,34.2,29.67,North,0,0.0,-999.0,95,0.00,,,-99.99,,2013-01-21 08:15:00,
2013-01-20 23:20:00,35.3,34.3,29.67,North,0,0.0,-999.0,95,0.00,,,-99.99,,2013-01-21 08:20:00,
2013-01-20 23:25:00,35.3,34.2,29.67,North,0,0.0,-999.0,95,0.00,,,-99.99,,2013-01-21 08:25:00,
2013-01-20 23:30:00,35.3,34.2,29.67,North,0,0.0,-999.0,95,0.00,,,-99.99,,2013-01-21 08:30:00,
2013-01-20 23:35:00,35.2,34.1,29.67,North,0,0.0,-999.0,95,0.00,,,-99.99,,2013-01-21 08:35:00,
2013-01-20 23:40:00,35.4,34.3,29.67,North,0,0.0,-999.0,95,0.00,,,-99.99,,2013-01-21 08:40:00,
2013-01-20 23:45:00,35.4,34.3,29.67,North,0,0.0,-999.0,95,0.00,,,-99.99,,2013-01-21 08:45:00,
2013-01-20 23:50:00,35.3,34.2,29.67,North,0,0.0,-999.0,95,0.00,,,-99.99,,2013-01-21 08:50:00,
2013-01-20 23:55:00,35.3,34.1,29.67,North,0,0.0,-999.0,95,0.00,,,-99.99,,2013-01-21 08:55:00,